Time;durP1;ratioP1;P1;durP2;ratioP2;P2;SDS_P1;SDS_P2;PMS_P1;PMS_P2;Temp;Humidity;BMP_temperature;BMP_pressure;BME280_temperature;BME280_humidity;BME280_pressure;Samples;Min_cycle;Max_cycle;Signal;HPM_P1;HPM_P2
2023/08/21 00:02:07;;;;;;;10.13;6.27;;;;;;;24.86;53.69;97165.84;5069935;28;20200;-85
2023/08/21 00:04:34;;;;;;;6.83;6.13;;;;;;;24.97;53.42;97186.81;5070193;28;20574;-85
2023/08/21 00:07:01;;;;;;;6.83;6.07;;;;;;;24.80;53.28;97190.31;5068203;28;20671;-86
2023/08/21 00:09:28;;;;;;;11.57;5.93;;;;;;;24.87;53.05;97180.78;5070428;28;20202;-76
2023/08/21 00:11:55;;;;;;;6.67;5.73;;;;;;;24.90;52.13;97183.09;5068191;28;20183;-86
2023/08/21 00:14:22;;;;;;;11.50;6.63;;;;;;;24.75;52.64;97180.19;5070039;28;20303;-80
2023/08/21 00:16:49;;;;;;;7.67;6.27;;;;;;;24.92;51.92;97176.66;5069511;28;20348;-83
2023/08/21 00:19:16;;;;;;;11.60;6.40;;;;;;;25.00;52.01;97175.88;5069734;28;20192;-72
2023/08/21 00:21:43;;;;;;;8.40;6.40;;;;;;;24.87;52.53;97172.81;5068466;28;20205;-74
2023/08/21 00:24:10;;;;;;;10.80;6.83;;;;;;;24.78;52.85;97157.84;5069317;28;20266;-72
2023/08/21 00:26:37;;;;;;;8.03;6.23;;;;;;;24.79;52.82;97180.72;5069920;28;20203;-74
2023/08/21 00:29:04;;;;;;;8.00;5.87;;;;;;;24.70;52.72;97181.59;5068955;28;20261;-86
2023/08/21 00:31:31;;;;;;;5.73;4.70;;;;;;;24.52;53.20;97183.44;5068445;28;20797;-83
2023/08/21 00:33:58;;;;;;;8.87;5.43;;;;;;;24.40;52.86;97166.13;5069171;28;20218;-71
2023/08/21 00:36:26;;;;;;;6.70;5.37;;;;;;;24.45;53.50;97177.09;5069210;28;20233;-71
2023/08/21 00:38:53;;;;;;;6.07;5.07;;;;;;;24.50;52.78;97174.81;5051213;28;20191;-71
2023/08/21 00:41:20;;;;;;;11.90;5.37;;;;;;;24.19;53.21;97180.47;5067554;28;20182;-72
2023/08/21 00:43:47;;;;;;;6.53;5.03;;;;;;;23.92;54.20;97172.59;5068260;28;20235;-72
2023/08/21 00:46:15;;;;;;;9.53;5.53;;;;;;;23.87;54.93;97179.28;5068654;28;20710;-80
2023/08/21 00:48:44;;;;;;;7.27;4.90;;;;;;;23.72;55.11;97171.00;5035224;28;20796;-72
2023/08/21 00:51:14;;;;;;;7.63;5.00;;;;;;;23.74;55.37;97168.25;5067447;28;20182;-72
2023/08/21 00:53:41;;;;;;;6.30;4.87;;;;;;;23.76;54.97;97174.22;5068938;28;20236;-72
2023/08/21 00:56:09;;;;;;;6.07;5.40;;;;;;;23.83;54.52;97176.09;5069053;28;20271;-72
2023/08/21 00:58:38;;;;;;;7.80;6.27;;;;;;;23.86;54.83;97177.63;5067251;28;20213;-72
2023/08/21 01:01:05;;;;;;;10.13;5.47;;;;;;;23.69;54.99;97171.31;5069258;28;20185;-77
2023/08/21 01:03:32;;;;;;;10.77;5.67;;;;;;;23.82;55.08;97163.84;5066867;28;20196;-73
2023/08/21 01:05:59;;;;;;;7.10;5.20;;;;;;;23.68;55.27;97167.00;5069099;28;20196;-74
2023/08/21 01:08:32;;;;;;;8.07;5.40;;;;;;;23.62;55.63;97172.88;5068461;28;20573;-72
2023/08/21 01:11:12;;;;;;;9.10;5.97;;;;;;;23.53;55.92;97168.50;5068588;28;20193;-71
2023/08/21 01:14:00;;;;;;;6.60;5.47;;;;;;;23.36;55.99;97163.97;5068791;28;20226;-73
2023/08/21 01:16:29;;;;;;;5.50;5.00;;;;;;;23.54;55.71;97175.44;5068049;28;20232;-72
2023/08/21 01:18:57;;;;;;;6.23;5.63;;;;;;;23.52;55.60;97156.22;5067473;28;20274;-72
2023/08/21 01:21:24;;;;;;;9.40;5.70;;;;;;;23.62;55.48;97164.94;5068232;28;20192;-70
2023/08/21 01:23:51;;;;;;;8.47;5.97;;;;;;;23.52;55.68;97169.47;5068488;28;20258;-71
2023/08/21 01:26:19;;;;;;;8.87;6.77;;;;;;;23.43;56.59;97160.59;5067059;28;20265;-71
2023/08/21 01:28:46;;;;;;;8.60;6.83;;;;;;;23.54;56.26;97167.50;5068078;28;20201;-71
2023/08/21 01:31:30;;;;;;;8.80;6.87;;;;;;;23.64;55.50;97170.91;5068731;28;20269;-71
2023/08/21 01:34:01;;;;;;;9.90;7.10;;;;;;;23.36;56.49;97162.16;5067476;28;21065;-72
2023/08/21 01:36:30;;;;;;;9.60;5.90;;;;;;;23.28;56.71;97171.75;5068344;28;20683;-71
2023/08/21 01:38:58;;;;;;;9.30;6.50;;;;;;;23.18;56.38;97157.75;5068217;28;20189;-73
2023/08/21 01:41:25;;;;;;;9.73;6.37;;;;;;;23.10;56.84;97170.88;5066811;28;20209;-72
2023/08/21 01:43:53;;;;;;;14.97;6.40;;;;;;;23.15;56.56;97173.88;5068294;28;20200;-71
2023/08/21 01:46:20;;;;;;;7.97;5.63;;;;;;;23.26;56.56;97160.50;5066315;28;20216;-73
2023/08/21 01:48:47;;;;;;;7.63;6.70;;;;;;;23.30;56.54;97183.88;5068308;28;20205;-75
2023/08/21 01:51:15;;;;;;;10.23;6.93;;;;;;;23.35;56.06;97186.09;5067399;28;20188;-72
2023/08/21 01:53:43;;;;;;;12.13;6.40;;;;;;;23.24;56.75;97168.59;5066033;28;20213;-72
2023/08/21 01:56:10;;;;;;;11.50;6.30;;;;;;;23.41;56.37;97178.41;5067552;28;20195;-74
2023/08/21 01:58:38;;;;;;;8.17;6.67;;;;;;;23.52;56.05;97176.53;5066376;28;20687;-73
2023/08/21 02:01:05;;;;;;;10.17;6.17;;;;;;;23.64;55.53;97160.34;5066734;28;20216;-73
2023/08/21 02:03:33;;;;;;;8.80;6.40;;;;;;;23.72;55.58;97167.56;5067095;28;20621;-77
2023/08/21 02:06:00;;;;;;;8.70;6.07;;;;;;;23.69;55.24;97168.69;5066946;28;20663;-71
2023/08/21 02:08:32;;;;;;;9.00;6.90;;;;;;;23.54;55.56;97164.84;5049666;28;20687;-70
2023/08/21 02:10:59;;;;;;;6.93;6.20;;;;;;;23.49;55.96;97161.00;5067849;28;20185;-70
2023/08/21 02:13:26;;;;;;;8.57;6.17;;;;;;;23.52;56.07;97161.53;5067273;28;20591;-76
2023/08/21 02:15:53;;;;;;;11.43;5.97;;;;;;;23.51;55.54;97164.31;5065887;28;20188;-75
2023/08/21 02:18:41;;;;;;;9.83;6.10;;;;;;;23.39;56.22;97179.53;5053148;28;20649;-72
2023/08/21 02:21:08;;;;;;;9.13;5.90;;;;;;;23.50;55.99;97178.50;5065675;28;20307;-74
2023/08/21 02:23:35;;;;;;;8.77;6.17;;;;;;;23.42;55.83;97176.59;5049924;28;20187;-74
2023/08/21 02:26:02;;;;;;;7.37;5.83;;;;;;;23.14;56.55;97141.34;5065726;28;20180;-77
2023/08/21 02:28:29;;;;;;;9.77;5.90;;;;;;;23.11;56.88;97160.13;5067523;28;20197;-72
2023/08/21 02:30:55;;;;;;;10.00;5.60;;;;;;;23.01;56.37;97132.09;5066205;28;20708;-79
2023/08/21 02:33:22;;;;;;;7.23;6.13;;;;;;;23.25;56.73;97188.75;5067107;28;20199;-76
2023/08/21 02:35:51;;;;;;;7.87;6.40;;;;;;;23.21;57.12;97178.59;5067257;28;20221;-75
2023/08/21 02:38:18;;;;;;;7.53;6.27;;;;;;;23.24;56.78;97188.88;5066802;28;20186;-75
2023/08/21 02:40:45;;;;;;;8.97;6.27;;;;;;;23.24;56.89;97189.72;5067851;28;20664;-72
2023/08/21 02:43:12;;;;;;;9.67;6.27;;;;;;;23.07;57.51;97185.19;5066898;28;20208;-81
2023/08/21 02:45:39;;;;;;;8.30;6.27;;;;;;;22.77;58.12;97168.72;5066185;28;20181;-74
2023/08/21 02:48:05;;;;;;;10.33;6.83;;;;;;;22.97;57.61;97191.47;5065587;28;20697;-75
2023/08/21 02:50:33;;;;;;;8.53;6.30;;;;;;;23.02;56.92;97173.41;5066975;28;20198;-74
2023/08/21 02:53:00;;;;;;;8.10;6.10;;;;;;;23.10;56.77;97181.44;5067288;28;20215;-72
2023/08/21 02:55:27;;;;;;;7.63;5.77;;;;;;;23.12;56.54;97182.13;5068065;28;20224;-72
2023/08/21 02:57:54;;;;;;;8.73;5.80;;;;;;;22.85;57.49;97180.25;5069253;28;20778;-73
2023/08/21 03:00:21;;;;;;;14.23;6.43;;;;;;;22.69;57.95;97181.81;5068396;28;20187;-73
2023/08/21 03:02:49;;;;;;;6.97;5.97;;;;;;;22.75;57.56;97168.03;5069124;28;20200;-75
2023/08/21 03:05:16;;;;;;;10.80;5.80;;;;;;;22.48;58.70;97172.19;5067188;28;20225;-72
2023/08/21 03:07:43;;;;;;;7.53;6.23;;;;;;;22.69;58.54;97184.44;5068057;28;20190;-70
2023/08/21 03:10:10;;;;;;;10.53;6.17;;;;;;;22.65;57.95;97187.34;5068535;28;20204;-74
2023/08/21 03:12:39;;;;;;;7.77;5.83;;;;;;;22.71;58.07;97187.78;5050177;28;20227;-71
2023/08/21 03:15:07;;;;;;;10.27;5.80;;;;;;;22.53;58.94;97187.59;5069393;28;20529;-71
2023/08/21 03:17:35;;;;;;;7.50;5.77;;;;;;;22.48;58.16;97169.53;5047080;28;20195;-70
2023/08/21 03:20:04;;;;;;;10.00;5.33;;;;;;;22.60;58.23;97165.84;5068750;28;20184;-77
2023/08/21 03:22:31;;;;;;;8.93;5.90;;;;;;;22.78;58.15;97194.13;5075171;28;20199;-80
2023/08/21 03:24:59;;;;;;;7.37;5.50;;;;;;;22.77;58.11;97184.56;5071136;28;20192;-73
2023/08/21 03:27:26;;;;;;;10.63;5.90;;;;;;;22.95;57.88;97185.50;5066141;28;20188;-71
2023/08/21 03:29:53;;;;;;;7.83;5.80;;;;;;;23.14;57.19;97188.09;5052926;28;20230;-72
2023/08/21 03:32:20;;;;;;;10.60;5.60;;;;;;;23.27;55.70;97165.63;5048954;28;20186;-71
2023/08/21 03:34:47;;;;;;;12.83;6.03;;;;;;;23.61;55.02;97184.47;5044593;28;20243;-72
2023/08/21 03:37:14;;;;;;;10.30;5.67;;;;;;;23.70;53.53;97156.28;5046099;28;20733;-71
2023/08/21 03:39:41;;;;;;;7.67;4.97;;;;;;;24.15;52.62;97179.13;5045841;28;20226;-71
2023/08/21 03:42:10;;;;;;;7.20;5.47;;;;;;;24.56;51.50;97184.81;5045121;28;20685;-70
2023/08/21 03:44:39;;;;;;;8.40;4.90;;;;;;;24.84;50.52;97189.03;5044891;28;20608;-71
2023/08/21 03:47:06;;;;;;;7.67;4.90;;;;;;;25.09;50.14;97193.50;5054978;28;20226;-70
2023/08/21 03:49:39;;;;;;;7.07;5.10;;;;;;;25.26;49.81;97189.97;5063210;28;20200;-86
2023/08/21 03:52:08;;;;;;;9.13;4.90;;;;;;;25.52;48.60;97201.41;5047285;28;20204;-74
2023/08/21 03:54:35;;;;;;;7.60;4.87;;;;;;;25.53;48.53;97196.94;5067170;28;20785;-71
2023/08/21 03:57:02;;;;;;;8.47;5.23;;;;;;;25.74;48.13;97200.84;5065262;28;20603;-72
2023/08/21 03:59:29;;;;;;;8.43;4.80;;;;;;;25.87;48.36;97202.22;5047089;28;20230;-72
2023/08/21 04:01:56;;;;;;;6.90;4.77;;;;;;;25.75;47.68;97159.22;5055488;28;20197;-70
2023/08/21 04:04:23;;;;;;;7.13;4.60;;;;;;;26.06;47.69;97204.59;5065714;28;20254;-71
2023/08/21 04:06:50;;;;;;;6.83;4.80;;;;;;;26.07;47.69;97216.91;5066679;28;20199;-74
2023/08/21 04:09:17;;;;;;;10.40;4.53;;;;;;;26.24;47.01;97195.53;5065743;28;20193;-74
2023/08/21 04:11:44;;;;;;;5.10;4.60;;;;;;;26.31;46.67;97206.34;5065745;28;20205;-72
2023/08/21 04:14:11;;;;;;;4.93;4.53;;;;;;;26.22;47.14;97194.88;5064873;28;20216;-75
2023/08/21 04:16:38;;;;;;;6.60;5.10;;;;;;;26.33;47.23;97215.81;5067073;28;20664;-72
2023/08/21 04:19:06;;;;;;;5.87;4.27;;;;;;;26.42;46.52;97212.16;5069928;28;20263;-70
2023/08/21 04:21:33;;;;;;;7.90;4.83;;;;;;;26.52;46.37;97223.47;5069349;28;20198;-71
2023/08/21 04:24:00;;;;;;;6.77;4.83;;;;;;;26.58;46.19;97222.00;5068876;28;20685;-73
2023/08/21 04:26:27;;;;;;;6.63;4.57;;;;;;;26.84;45.98;97224.53;5069342;28;20203;-72
2023/08/21 04:28:54;;;;;;;5.73;4.57;;;;;;;26.91;46.04;97220.22;5069268;28;20199;-71
2023/08/21 04:31:21;;;;;;;8.00;5.20;;;;;;;27.09;45.50;97218.19;5068608;28;20236;-70
2023/08/21 04:33:48;;;;;;;7.40;4.50;;;;;;;27.02;45.48;97206.56;5068898;28;20194;-72
2023/08/21 04:36:16;;;;;;;10.93;5.47;;;;;;;27.12;45.25;97218.69;5067747;28;21071;-72
2023/08/21 04:38:46;;;;;;;5.80;5.20;;;;;;;27.17;45.16;97215.53;5067605;28;20744;-74
2023/08/21 04:41:14;;;;;;;5.23;4.43;;;;;;;27.22;44.91;97215.88;5069886;28;20296;-72
2023/08/21 04:43:44;;;;;;;6.97;4.50;;;;;;;27.43;44.37;97218.00;5067217;28;20193;-73
2023/08/21 04:46:11;;;;;;;7.53;4.47;;;;;;;27.52;44.52;97216.97;5051749;28;20204;-77
2023/08/21 04:48:41;;;;;;;7.50;4.67;;;;;;;27.70;43.86;97214.94;5067425;28;20668;-77
2023/08/21 04:51:08;;;;;;;5.73;4.07;;;;;;;27.80;44.25;97231.53;5067953;28;20587;-73
2023/08/21 04:53:36;;;;;;;6.80;4.37;;;;;;;27.72;43.84;97216.41;5068281;28;20577;-74
2023/08/21 04:56:07;;;;;;;5.20;3.97;;;;;;;27.83;43.68;97233.84;5067895;28;20257;-75
2023/08/21 04:58:35;;;;;;;5.60;4.00;;;;;;;27.95;43.06;97219.13;5068463;28;20234;-71
2023/08/21 05:01:04;;;;;;;4.73;4.23;;;;;;;27.98;43.45;97213.50;5066890;28;20243;-71
2023/08/21 05:03:34;;;;;;;6.13;4.67;;;;;;;28.08;43.27;97208.81;5067722;28;20185;-71
2023/08/21 05:06:01;;;;;;;5.63;4.13;;;;;;;28.22;43.45;97220.53;5068643;28;20189;-72
2023/08/21 05:08:28;;;;;;;7.43;4.80;;;;;;;28.32;42.94;97231.78;5072660;28;20196;-74
2023/08/21 05:10:59;;;;;;;7.90;4.90;;;;;;;28.37;42.48;97226.78;5074534;28;20688;-73
2023/08/21 05:13:30;;;;;;;7.47;4.73;;;;;;;28.51;42.70;97220.69;5075322;28;20192;-74
2023/08/21 05:15:58;;;;;;;9.97;4.67;;;;;;;28.54;43.17;97226.47;5055649;28;20232;-78
2023/08/21 05:18:30;;;;;;;7.17;4.33;;;;;;;28.54;42.41;97226.47;5071617;28;20177;-72
2023/08/21 05:20:57;;;;;;;6.97;4.60;;;;;;;28.66;41.66;97214.47;5070495;28;20181;-72
2023/08/21 05:23:24;;;;;;;5.03;4.00;;;;;;;28.84;41.69;97222.97;5068179;28;20740;-85
2023/08/21 05:25:56;;;;;;;6.87;4.30;;;;;;;28.81;41.86;97233.97;5073899;28;20182;-83
2023/08/21 05:28:23;;;;;;;5.23;4.40;;;;;;;29.13;40.95;97226.72;5075942;28;21351;-78
2023/08/21 05:30:50;;;;;;;7.77;4.20;;;;;;;29.13;40.71;97229.38;5071837;28;20208;-74
2023/08/21 05:33:19;;;;;;;5.93;4.23;;;;;;;29.34;40.30;97217.06;5054502;28;20217;-79
2023/08/21 05:35:48;;;;;;;8.00;4.57;;;;;;;29.36;40.86;97231.03;5067958;28;20213;-78
2023/08/21 05:38:15;;;;;;;7.37;4.10;;;;;;;29.39;40.78;97225.31;5072779;28;20182;-73
2023/08/21 05:40:42;;;;;;;7.67;5.17;;;;;;;29.62;40.58;97231.41;5073081;28;20685;-78
2023/08/21 05:43:10;;;;;;;6.53;4.63;;;;;;;29.61;40.04;97229.75;5072867;28;20697;-76
2023/08/21 05:45:40;;;;;;;8.33;4.63;;;;;;;29.80;40.07;97225.72;5074278;28;20255;-73
2023/08/21 05:48:07;;;;;;;8.00;4.67;;;;;;;29.93;39.02;97228.59;5072291;28;20182;-83
2023/08/21 05:50:36;;;;;;;4.80;4.30;;;;;;;29.82;40.00;97212.22;5070185;28;20737;-80
2023/08/21 05:53:04;;;;;;;5.87;4.70;;;;;;;29.74;40.31;97231.81;5068735;28;20182;-83
2023/08/21 05:55:32;;;;;;;6.30;5.13;;;;;;;29.89;39.31;97234.47;5053538;28;20235;-84
2023/08/21 05:58:00;;;;;;;6.63;4.70;;;;;;;30.10;39.06;97222.03;5087600;28;20643;-80
2023/08/21 06:00:27;;;;;;;5.37;4.80;;;;;;;30.02;39.84;97227.47;5061548;28;20189;-76
2023/08/21 06:02:54;;;;;;;7.50;4.73;;;;;;;30.17;38.88;97230.94;5075505;28;20190;-80
2023/08/21 06:05:56;;;;;;;5.13;4.07;;;;;;;30.11;38.93;97226.34;5055441;28;20193;-72
2023/08/21 06:08:24;;;;;;;9.00;4.53;;;;;;;30.11;39.17;97237.03;5075993;28;20228;-73
2023/08/21 06:10:52;;;;;;;8.40;5.00;;;;;;;30.02;39.34;97240.84;5056024;28;20195;-75
2023/08/21 06:13:19;;;;;;;7.20;4.60;;;;;;;30.08;39.72;97242.75;5070144;28;20239;-73
2023/08/21 06:15:49;;;;;;;5.93;4.47;;;;;;;30.13;39.74;97237.66;5066456;28;20300;-78
2023/08/21 06:18:17;;;;;;;5.80;4.77;;;;;;;30.22;38.93;97247.25;5065728;28;20203;-81
2023/08/21 06:20:44;;;;;;;7.77;4.97;;;;;;;30.29;38.89;97245.53;5065552;28;20178;-81
2023/08/21 06:23:11;;;;;;;6.87;4.80;;;;;;;30.35;38.97;97243.94;5066469;28;20194;-73
2023/08/21 06:25:39;;;;;;;7.37;5.03;;;;;;;30.60;38.88;97250.59;5065747;28;20242;-77
2023/08/21 06:28:06;;;;;;;8.27;4.97;;;;;;;30.60;39.93;97249.75;5064351;28;20189;-86
2023/08/21 06:30:33;;;;;;;5.27;4.73;;;;;;;30.70;39.24;97250.28;5066933;28;20196;-79
2023/08/21 06:33:01;;;;;;;5.80;4.20;;;;;;;30.76;38.43;97236.97;5081786;28;20193;-83
2023/08/21 06:35:28;;;;;;;10.00;5.00;;;;;;;30.66;38.28;97238.31;5048938;28;20217;-73
2023/08/21 06:37:55;;;;;;;6.10;4.90;;;;;;;30.69;38.87;97229.88;5065251;28;20723;-75
2023/08/21 06:40:22;;;;;;;9.13;5.17;;;;;;;30.94;38.61;97248.06;5064864;28;20200;-72
2023/08/21 06:42:50;;;;;;;11.50;4.73;;;;;;;30.90;38.82;97252.16;5066661;28;20276;-84
2023/08/21 06:45:22;;;;;;;6.65;4.55;;;;;;;30.94;38.76;97258.78;5048560;28;20269;-84
2023/08/21 06:47:50;;;;;;;5.20;4.50;;;;;;;30.98;38.35;97251.19;5065043;28;20716;-75
2023/08/21 06:50:17;;;;;;;9.03;4.77;;;;;;;31.03;39.15;97254.13;5069045;28;20272;-81
2023/08/21 06:52:44;;;;;;;5.87;4.90;;;;;;;31.18;38.09;97254.88;5068540;28;20182;-73
2023/08/21 06:55:11;;;;;;;10.27;4.75;;;;;;;31.40;37.95;97253.84;5066689;28;20751;-87
2023/08/21 06:57:38;;;;;;;8.57;4.50;;;;;;;31.38;37.82;97245.16;5065784;28;20182;-79
2023/08/21 07:00:06;;;;;;;12.40;8.60;;;;;;;31.33;38.18;97231.50;5066457;28;20635;-77
2023/08/21 07:02:33;;;;;;;8.93;5.47;;;;;;;31.27;37.60;97265.25;5065836;28;20768;-77
2023/08/21 07:05:00;;;;;;;7.38;4.93;;;;;;;31.40;37.83;97248.50;5066975;28;20231;-79
2023/08/21 07:07:29;;;;;;;8.93;6.40;;;;;;;31.71;37.72;97238.19;5066387;28;20201;-80
2023/08/21 07:09:56;;;;;;;6.05;4.60;;;;;;;31.60;37.68;97244.09;5066496;28;20681;-80
2023/08/21 07:12:23;;;;;;;11.07;5.13;;;;;;;31.39;37.55;97236.13;5067287;28;20669;-79
2023/08/21 07:14:50;;;;;;;7.10;4.35;;;;;;;31.47;38.19;97254.72;5066924;28;20205;-76
2023/08/21 07:17:17;;;;;;;8.33;5.30;;;;;;;31.42;37.84;97235.75;5066654;28;20189;-74
2023/08/21 07:19:44;;;;;;;7.35;5.25;;;;;;;31.56;37.56;97239.31;5066264;28;20678;-80
2023/08/21 07:22:13;;;;;;;6.90;4.90;;;;;;;31.77;37.71;97229.38;5064984;28;20195;-81
2023/08/21 07:24:40;;;;;;;5.95;4.68;;;;;;;32.02;37.06;97249.34;5065138;28;20230;-76
2023/08/21 07:27:08;;;;;;;7.70;4.68;;;;;;;32.11;36.80;97244.59;5065119;28;20198;-80
2023/08/21 07:29:35;;;;;;;8.30;4.88;;;;;;;32.04;36.85;97239.25;5067901;28;20193;-77
2023/08/21 07:32:02;;;;;;;8.80;4.97;;;;;;;32.00;37.00;97234.47;5066848;28;20181;-83
2023/08/21 07:34:29;;;;;;;7.75;5.00;;;;;;;32.18;36.93;97240.09;5048880;28;20194;-75
2023/08/21 07:36:56;;;;;;;7.88;4.55;;;;;;;32.03;36.46;97237.56;5067012;28;20228;-74
2023/08/21 07:39:23;;;;;;;14.27;4.80;;;;;;;32.15;36.55;97248.53;5068557;28;20236;-84
2023/08/21 07:41:52;;;;;;;5.38;4.28;;;;;;;32.19;36.50;97246.31;5067079;28;20200;-78
2023/08/21 07:44:19;;;;;;;5.85;4.05;;;;;;;32.16;36.73;97242.16;5066207;28;20185;-74
2023/08/21 07:46:46;;;;;;;9.05;5.75;;;;;;;32.27;36.48;97246.97;5065932;28;20231;-82
2023/08/21 07:49:13;;;;;;;5.78;4.93;;;;;;;32.39;35.79;97244.53;5064884;28;20260;-84
2023/08/21 07:51:46;;;;;;;7.55;4.03;;;;;;;32.34;36.51;97242.44;5069139;28;20296;-81
2023/08/21 07:54:13;;;;;;;8.65;4.82;;;;;;;32.34;36.60;97238.91;5073923;28;20453;-81
2023/08/21 07:56:41;;;;;;;5.15;4.65;;;;;;;32.39;34.39;97247.19;5073556;28;20228;-83
2023/08/21 07:59:08;;;;;;;7.03;4.40;;;;;;;32.47;34.81;97244.38;5070480;28;20193;-79
2023/08/21 08:01:35;;;;;;;6.60;4.50;;;;;;;32.35;34.46;97238.75;5070196;28;20200;-73
2023/08/21 08:04:03;;;;;;;7.20;4.75;;;;;;;32.59;34.51;97245.44;5069705;28;20283;-77
2023/08/21 08:06:31;;;;;;;4.82;3.60;;;;;;;32.33;33.74;97230.06;5069821;28;20198;-77
2023/08/21 08:08:58;;;;;;;13.35;5.63;;;;;;;32.43;34.37;97241.25;5069068;28;20189;-74
2023/08/21 08:11:25;;;;;;;7.13;4.55;;;;;;;32.36;33.88;97250.28;5068598;28;20212;-82
2023/08/21 08:13:52;;;;;;;6.85;4.85;;;;;;;32.42;33.84;97241.44;5069769;28;20193;-80
2023/08/21 08:16:35;;;;;;;7.43;5.07;;;;;;;32.43;33.82;97232.34;5065987;28;20240;-81
2023/08/21 08:19:03;;;;;;;5.50;4.45;;;;;;;32.67;34.14;97237.19;5064786;28;20201;-76
2023/08/21 08:21:30;;;;;;;5.85;4.10;;;;;;;32.96;33.70;97238.69;5052847;28;20193;-78
2023/08/21 08:23:57;;;;;;;7.00;3.90;;;;;;;32.67;33.64;97238.03;5069056;28;20181;-80
2023/08/21 08:26:24;;;;;;;7.63;4.40;;;;;;;32.65;34.08;97224.00;5058057;28;20556;-80
2023/08/21 08:28:51;;;;;;;6.28;4.55;;;;;;;32.52;33.84;97212.41;5047510;28;20222;-83
2023/08/21 08:31:18;;;;;;;9.82;6.03;;;;;;;32.65;33.79;97228.53;5064572;28;20193;-74
2023/08/21 08:33:46;;;;;;;6.38;4.28;;;;;;;32.90;33.45;97234.97;5068699;28;20283;-78
2023/08/21 08:36:13;;;;;;;7.50;4.43;;;;;;;32.75;33.62;97229.78;5067316;28;20306;-81
2023/08/21 08:38:41;;;;;;;6.65;4.50;;;;;;;32.64;34.12;97219.66;5068568;28;20284;-74
2023/08/21 08:41:14;;;;;;;7.70;4.93;;;;;;;32.67;34.11;97226.47;5068626;28;20689;-73
2023/08/21 08:43:42;;;;;;;5.90;4.65;;;;;;;32.84;34.32;97230.41;5067696;28;20189;-76
2023/08/21 08:46:10;;;;;;;7.20;4.53;;;;;;;32.85;33.79;97226.72;5066735;28;20193;-80
2023/08/21 08:48:38;;;;;;;9.07;4.97;;;;;;;32.73;33.58;97220.28;5067895;28;20645;-74
2023/08/21 08:51:06;;;;;;;5.03;4.30;;;;;;;33.13;34.21;97226.53;5068032;28;20197;-84
2023/08/21 08:53:34;;;;;;;10.45;7.00;;;;;;;33.20;34.29;97212.06;5050470;28;20783;-72
2023/08/21 08:56:01;;;;;;;5.75;4.82;;;;;;;32.99;33.16;97212.31;5068229;28;20213;-73
2023/08/21 08:58:29;;;;;;;6.00;4.50;;;;;;;32.77;33.07;97234.94;5067718;28;20285;-72
2023/08/21 09:00:56;;;;;;;7.93;4.60;;;;;;;32.83;33.50;97223.38;5068937;28;20578;-81
2023/08/21 09:03:24;;;;;;;6.07;4.07;;;;;;;32.99;34.18;97219.53;5064274;28;20190;-77
2023/08/21 09:05:51;;;;;;;7.10;5.40;;;;;;;33.01;34.13;97222.81;5067710;28;20189;-83
2023/08/21 09:08:19;;;;;;;6.78;4.55;;;;;;;33.10;34.19;97221.59;5066598;28;20181;-77
2023/08/21 09:10:47;;;;;;;8.80;5.45;;;;;;;33.19;33.33;97231.91;5067016;28;20265;-84
2023/08/21 09:13:19;;;;;;;6.45;4.40;;;;;;;33.05;33.00;97224.91;5067140;28;20262;-76
2023/08/21 09:15:53;;;;;;;6.70;4.75;;;;;;;33.11;33.92;97197.22;5067730;28;20266;-76
2023/08/21 09:18:20;;;;;;;6.25;4.82;;;;;;;33.32;33.23;97223.88;5067278;28;20453;-78
2023/08/21 09:20:48;;;;;;;9.07;5.65;;;;;;;33.32;33.62;97210.44;5049977;28;20193;-74
2023/08/21 09:23:16;;;;;;;9.25;4.28;;;;;;;32.84;32.61;97233.94;5066591;28;20201;-73
2023/08/21 09:25:47;;;;;;;8.82;5.15;;;;;;;32.94;33.85;97201.31;5067124;28;20660;-77
2023/08/21 09:28:21;;;;;;;11.75;5.13;;;;;;;33.31;34.65;97219.50;5067920;28;20278;-80
2023/08/21 09:30:54;;;;;;;8.25;5.00;;;;;;;33.21;34.62;97224.47;5066528;28;20190;-76
2023/08/21 09:33:23;;;;;;;5.78;4.35;;;;;;;33.10;33.15;97211.66;5049399;28;20288;-75
2023/08/21 09:35:54;;;;;;;6.50;4.70;;;;;;;32.93;32.83;97198.84;5068586;28;20744;-76
2023/08/21 09:38:22;;;;;;;7.28;4.53;;;;;;;32.79;33.21;97201.50;5065972;28;20280;-74
2023/08/21 09:40:52;;;;;;;6.78;4.68;;;;;;;32.87;33.61;97208.56;5049958;28;20200;-74
2023/08/21 09:43:21;;;;;;;9.23;4.88;;;;;;;32.96;33.55;97206.47;5065487;28;20185;-76
2023/08/21 09:45:54;;;;;;;6.35;4.63;;;;;;;32.68;33.46;97228.13;5067203;28;20188;-76
2023/08/21 09:48:29;;;;;;;12.80;4.65;;;;;;;32.68;33.57;97206.66;5067707;28;20189;-76
2023/08/21 09:50:56;;;;;;;7.18;4.22;;;;;;;32.67;34.26;97191.59;5067121;28;20528;-82
2023/08/21 09:53:23;;;;;;;5.53;4.82;;;;;;;32.97;34.19;97200.91;5067850;28;20213;-73
2023/08/21 09:56:10;;;;;;;6.85;4.68;;;;;;;33.06;34.13;97204.22;5066533;28;20599;-75
2023/08/21 09:58:37;;;;;;;7.10;5.10;;;;;;;33.28;34.40;97203.84;5049508;28;20688;-77
2023/08/21 10:01:13;;;;;;;8.57;5.03;;;;;;;33.30;34.58;97203.63;5065847;28;20641;-77
2023/08/21 10:03:42;;;;;;;5.90;5.13;;;;;;;33.41;34.62;97203.78;5066889;28;20189;-74
2023/08/21 10:06:10;;;;;;;7.00;4.82;;;;;;;33.37;34.67;97194.50;5066375;28;20202;-78
2023/08/21 10:08:42;;;;;;;9.80;5.05;;;;;;;33.35;34.01;97185.84;5064889;28;20197;-75
2023/08/21 10:11:09;;;;;;;7.10;4.78;;;;;;;33.08;35.02;97196.81;5067679;28;20185;-74
2023/08/21 10:13:38;;;;;;;7.47;4.50;;;;;;;32.97;35.20;97202.75;5066431;28;20246;-74
2023/08/21 10:16:07;;;;;;;6.18;4.85;;;;;;;33.23;35.35;97195.56;5064992;28;20221;-80
2023/08/21 10:18:36;;;;;;;6.28;4.78;;;;;;;33.11;35.00;97196.38;5067331;28;20684;-78
2023/08/21 10:21:15;;;;;;;8.82;4.70;;;;;;;33.30;34.84;97204.44;5066850;28;20193;-74
2023/08/21 10:23:45;;;;;;;5.38;4.43;;;;;;;33.33;35.56;97198.66;5065348;28;20193;-74
2023/08/21 10:26:13;;;;;;;6.82;4.63;;;;;;;33.56;34.41;97200.91;5065068;28;20198;-75
2023/08/21 10:29:01;;;;;;;5.65;4.53;;;;;;;33.51;34.02;97201.53;5065174;28;20403;-74
2023/08/21 10:31:36;;;;;;;9.27;5.35;;;;;;;33.51;33.95;97185.41;5066743;28;20189;-72
2023/08/21 10:34:08;;;;;;;7.80;4.60;;;;;;;33.37;32.27;97183.75;5066007;28;20196;-77
2023/08/21 10:36:44;;;;;;;5.47;3.83;;;;;;;32.95;32.95;97189.56;5065180;28;20267;-74
2023/08/21 10:39:21;;;;;;;7.20;3.92;;;;;;;33.20;32.21;97195.97;5065624;28;20695;-75
2023/08/21 10:41:55;;;;;;;4.88;4.05;;;;;;;33.19;32.13;97188.13;5047967;28;20192;-74
2023/08/21 10:45:00;;;;;;;7.82;4.93;;;;;;;33.48;32.96;97180.44;5065094;28;20265;-74
2023/08/21 10:47:34;;;;;;;5.45;4.35;;;;;;;33.50;31.63;97181.09;5065842;28;20593;-74
2023/08/21 10:50:05;;;;;;;6.70;4.35;;;;;;;33.43;31.97;97187.47;5066848;28;20234;-75
2023/08/21 10:52:39;;;;;;;9.18;4.35;;;;;;;33.46;32.06;97163.72;5064731;28;20243;-74
2023/08/21 10:55:09;;;;;;;6.30;4.90;;;;;;;33.36;31.84;97170.56;5065777;28;20242;-75
2023/08/21 10:57:37;;;;;;;5.75;4.25;;;;;;;33.41;31.85;97179.63;5065795;28;20213;-76
2023/08/21 11:00:11;;;;;;;6.15;4.43;;;;;;;33.49;31.34;97174.06;5064390;28;20189;-75
2023/08/21 11:02:40;;;;;;;6.30;4.03;;;;;;;33.40;31.21;97167.25;5066104;28;20192;-75
2023/08/21 11:05:09;;;;;;;6.22;4.32;;;;;;;33.35;31.29;97177.78;5064334;28;20185;-75
2023/08/21 11:07:39;;;;;;;7.82;4.30;;;;;;;33.36;31.75;97197.41;5064789;28;20633;-74
2023/08/21 11:10:10;;;;;;;7.25;3.88;;;;;;;33.49;31.47;97184.00;5066299;28;20208;-74
2023/08/21 11:12:48;;;;;;;9.68;4.47;;;;;;;33.62;31.94;97184.78;5064052;28;20221;-73
2023/08/21 11:15:17;;;;;;;5.85;3.97;;;;;;;33.46;31.59;97166.41;5065151;28;20203;-74
2023/08/21 11:17:58;;;;;;;7.05;4.43;;;;;;;33.48;32.23;97158.97;5065107;28;20731;-74
2023/08/21 11:20:31;;;;;;;6.13;4.53;;;;;;;33.47;32.14;97181.47;5066013;28;20317;-75
2023/08/21 11:23:05;;;;;;;6.57;4.25;;;;;;;33.34;32.35;97165.41;5065706;28;20268;-75
2023/08/21 11:25:33;;;;;;;6.78;4.53;;;;;;;33.53;32.53;97164.53;5066026;28;20181;-75
2023/08/21 11:28:02;;;;;;;6.65;4.45;;;;;;;33.57;32.04;97168.44;5067929;28;20204;-73
2023/08/21 11:30:33;;;;;;;7.47;4.40;;;;;;;33.63;31.84;97159.53;5068038;28;20185;-76
2023/08/21 11:33:18;;;;;;;5.55;4.07;;;;;;;33.60;31.94;97170.72;5070640;28;20576;-76
2023/08/21 11:35:45;;;;;;;6.22;4.50;;;;;;;33.49;31.97;97167.88;5068215;28;20561;-75
2023/08/21 11:38:21;;;;;;;6.10;4.03;;;;;;;33.45;30.84;97164.72;5069902;28;20831;-74
2023/08/21 11:40:53;;;;;;;6.40;3.55;;;;;;;33.89;29.25;97164.00;5070079;28;20720;-74